sensor_id;sensor_type;location;lat;lon;timestamp;pressure;altitude;pressure_sealevel;temperature;humidity
78584;BME280;67880;46.082;18.234;2023-06-05T00:00:30;99843.91;;;19.08;66.45
78584;BME280;67880;46.082;18.234;2023-06-05T00:01:04;99836.97;;;19.06;66.41
78584;BME280;67880;46.082;18.234;2023-06-05T00:01:37;99831.97;;;19.03;65.92
78584;BME280;67880;46.082;18.234;2023-06-05T00:02:09;99843.91;;;19.08;66.11
78584;BME280;67880;46.082;18.234;2023-06-05T00:02:42;99836.97;;;19.12;66.03
78584;BME280;67880;46.082;18.234;2023-06-05T00:03:17;99841.16;;;19.15;65.54
78584;BME280;67880;46.082;18.234;2023-06-05T00:03:50;99838.44;;;19.15;66.08
78584;BME280;67880;46.082;18.234;2023-06-05T00:04:24;99836.34;;;19.17;66.21
78584;BME280;67880;46.082;18.234;2023-06-05T00:05:34;99832.38;;;19.13;65.90
78584;BME280;67880;46.082;18.234;2023-06-05T00:06:42;99845.56;;;19.16;65.67
78584;BME280;67880;46.082;18.234;2023-06-05T00:07:56;99829.00;;;19.17;66.07
78584;BME280;67880;46.082;18.234;2023-06-05T00:08:30;99839.06;;;19.17;65.81
78584;BME280;67880;46.082;18.234;2023-06-05T00:09:04;99830.06;;;19.16;65.61
78584;BME280;67880;46.082;18.234;2023-06-05T00:09:50;99837.16;;;19.17;65.57
78584;BME280;67880;46.082;18.234;2023-06-05T00:10:25;99830.50;;;19.20;65.76
78584;BME280;67880;46.082;18.234;2023-06-05T00:11:00;99830.69;;;19.18;65.31
78584;BME280;67880;46.082;18.234;2023-06-05T00:11:32;99825.66;;;19.15;65.47
78584;BME280;67880;46.082;18.234;2023-06-05T00:13:26;99830.69;;;19.12;65.90
78584;BME280;67880;46.082;18.234;2023-06-05T00:13:58;99822.13;;;19.08;66.24
78584;BME280;67880;46.082;18.234;2023-06-05T00:15:04;99824.41;;;19.11;66.09
78584;BME280;67880;46.082;18.234;2023-06-05T00:15:36;99823.78;;;19.09;65.82
78584;BME280;67880;46.082;18.234;2023-06-05T00:16:09;99829.00;;;19.11;66.00
78584;BME280;67880;46.082;18.234;2023-06-05T00:17:15;99824.22;;;19.13;65.97
78584;BME280;67880;46.082;18.234;2023-06-05T00:17:52;99826.94;;;19.13;66.63
78584;BME280;67880;46.082;18.234;2023-06-05T00:19:34;99822.13;;;19.08;66.29
78584;BME280;67880;46.082;18.234;2023-06-05T00:20:06;99820.63;;;19.06;66.14
78584;BME280;67880;46.082;18.234;2023-06-05T00:20:45;99816.91;;;19.07;66.57
78584;BME280;67880;46.082;18.234;2023-06-05T00:21:53;99815.63;;;19.03;66.56
78584;BME280;67880;46.082;18.234;2023-06-05T00:22:29;99822.75;;;19.04;66.45
78584;BME280;67880;46.082;18.234;2023-06-05T00:23:06;99822.75;;;19.04;66.68
78584;BME280;67880;46.082;18.234;2023-06-05T00:23:42;99816.47;;;19.03;66.68
78584;BME280;67880;46.082;18.234;2023-06-05T00:24:16;99816.03;;;19.00;66.90
78584;BME280;67880;46.082;18.234;2023-06-05T00:24:48;99814.38;;;18.92;67.15
78584;BME280;67880;46.082;18.234;2023-06-05T00:25:21;99820.88;;;18.91;66.63
78584;BME280;67880;46.082;18.234;2023-06-05T00:26:28;99813.53;;;18.85;66.90
78584;BME280;67880;46.082;18.234;2023-06-05T00:26:59;99823.19;;;18.87;67.16
78584;BME280;67880;46.082;18.234;2023-06-05T00:28:09;99814.81;;;18.82;66.59
78584;BME280;67880;46.082;18.234;2023-06-05T00:28:47;99813.75;;;18.83;67.25
78584;BME280;67880;46.082;18.234;2023-06-05T00:29:26;99812.91;;;18.83;66.94
78584;BME280;67880;46.082;18.234;2023-06-05T00:30:04;99817.53;;;18.82;66.89
78584;BME280;67880;46.082;18.234;2023-06-05T00:30:36;99815.03;;;18.81;67.15
78584;BME280;67880;46.082;18.234;2023-06-05T00:31:10;99812.31;;;18.81;67.09
78584;BME280;67880;46.082;18.234;2023-06-05T00:32:18;99806.84;;;18.81;67.19
78584;BME280;67880;46.082;18.234;2023-06-05T00:32:50;99807.25;;;18.84;67.39
78584;BME280;67880;46.082;18.234;2023-06-05T00:33:22;99805.59;;;18.83;67.00
78584;BME280;67880;46.082;18.234;2023-06-05T00:33:54;99802.03;;;18.83;67.26
78584;BME280;67880;46.082;18.234;2023-06-05T00:34:59;99808.94;;;18.85;67.29
78584;BME280;67880;46.082;18.234;2023-06-05T00:35:32;99801.19;;;18.82;67.80
78584;BME280;67880;46.082;18.234;2023-06-05T00:36:04;99803.28;;;18.80;67.68
78584;BME280;67880;46.082;18.234;2023-06-05T00:36:36;99799.31;;;18.76;67.48
78584;BME280;67880;46.082;18.234;2023-06-05T00:37:47;99808.31;;;18.77;67.62
78584;BME280;67880;46.082;18.234;2023-06-05T00:38:52;99798.06;;;18.72;67.73
78584;BME280;67880;46.082;18.234;2023-06-05T00:39:57;99797.22;;;18.72;67.28
78584;BME280;67880;46.082;18.234;2023-06-05T00:40:30;99806.00;;;18.74;67.18
78584;BME280;67880;46.082;18.234;2023-06-05T00:41:04;99804.53;;;18.71;67.55
78584;BME280;67880;46.082;18.234;2023-06-05T00:41:40;99804.53;;;18.71;67.71
78584;BME280;67880;46.082;18.234;2023-06-05T00:42:17;99808.53;;;18.69;67.25
78584;BME280;67880;46.082;18.234;2023-06-05T00:42:50;99800.56;;;18.67;67.96
78584;BME280;67880;46.082;18.234;2023-06-05T00:43:26;99807.69;;;18.68;68.23
78584;BME280;67880;46.082;18.234;2023-06-05T00:44:33;99806.00;;;18.67;67.39
78584;BME280;67880;46.082;18.234;2023-06-05T00:45:41;99808.50;;;18.62;68.02
78584;BME280;67880;46.082;18.234;2023-06-05T00:46:15;99810.16;;;18.63;67.69
78584;BME280;67880;46.082;18.234;2023-06-05T00:46:51;99808.69;;;18.60;67.67
78584;BME280;67880;46.082;18.234;2023-06-05T00:47:27;99808.88;;;18.59;67.75
78584;BME280;67880;46.082;18.234;2023-06-05T00:48:36;99812.44;;;18.59;68.15
78584;BME280;67880;46.082;18.234;2023-06-05T00:49:43;99807.44;;;18.56;68.03
78584;BME280;67880;46.082;18.234;2023-06-05T00:50:57;99807.44;;;18.56;67.99
78584;BME280;67880;46.082;18.234;2023-06-05T00:52:06;99813.28;;;18.60;68.32
78584;BME280;67880;46.082;18.234;2023-06-05T00:52:40;99816.84;;;18.60;67.78
78584;BME280;67880;46.082;18.234;2023-06-05T00:54:25;99814.75;;;18.56;68.26
78584;BME280;67880;46.082;18.234;2023-06-05T00:54:58;99814.53;;;18.51;68.99
78584;BME280;67880;46.082;18.234;2023-06-05T00:56:05;99816.63;;;18.49;69.03
78584;BME280;67880;46.082;18.234;2023-06-05T00:57:13;99816.41;;;18.50;68.47
78584;BME280;67880;46.082;18.234;2023-06-05T00:58:24;99817.25;;;18.51;68.81
78584;BME280;67880;46.082;18.234;2023-06-05T00:58:58;99816.41;;;18.50;68.86
78584;BME280;67880;46.082;18.234;2023-06-05T00:59:32;99814.53;;;18.51;68.56
78584;BME280;67880;46.082;18.234;2023-06-05T01:00:08;99815.59;;;18.50;68.36
78584;BME280;67880;46.082;18.234;2023-06-05T01:00:44;99807.00;;;18.53;68.65
78584;BME280;67880;46.082;18.234;2023-06-05T01:01:20;99809.50;;;18.54;68.22
78584;BME280;67880;46.082;18.234;2023-06-05T01:02:00;99811.81;;;18.57;67.96
78584;BME280;67880;46.082;18.234;2023-06-05T01:02:37;99814.31;;;18.52;68.23
78584;BME280;67880;46.082;18.234;2023-06-05T01:03:09;99809.50;;;18.54;68.22
78584;BME280;67880;46.082;18.234;2023-06-05T01:03:47;99805.13;;;18.53;68.28
78584;BME280;67880;46.082;18.234;2023-06-05T01:04:55;99805.31;;;18.45;68.32
78584;BME280;67880;46.082;18.234;2023-06-05T01:05:28;99809.09;;;18.51;68.60
78584;BME280;67880;46.082;18.234;2023-06-05T01:06:00;99814.31;;;18.52;68.76
78584;BME280;67880;46.082;18.234;2023-06-05T01:07:10;99809.50;;;18.54;68.30
78584;BME280;67880;46.082;18.234;2023-06-05T01:08:19;99812.66;;;18.51;68.65
78584;BME280;67880;46.082;18.234;2023-06-05T01:08:57;99814.09;;;18.40;68.94
78584;BME280;67880;46.082;18.234;2023-06-05T01:10:07;99816.19;;;18.52;68.53
78584;BME280;67880;46.082;18.234;2023-06-05T01:11:27;99822.69;;;18.57;67.79
78584;BME280;67880;46.082;18.234;2023-06-05T01:13:24;99809.31;;;18.62;68.43
78584;BME280;67880;46.082;18.234;2023-06-05T01:14:14;99813.75;;;18.70;68.04
78584;BME280;67880;46.082;18.234;2023-06-05T01:15:29;99821.06;;;18.70;68.36
78584;BME280;67880;46.082;18.234;2023-06-05T01:16:03;99814.16;;;18.67;68.31
78584;BME280;67880;46.082;18.234;2023-06-05T01:16:40;99809.09;;;18.57;68.99
78584;BME280;67880;46.082;18.234;2023-06-05T01:18:22;99815.59;;;18.56;68.42
78584;BME280;67880;46.082;18.234;2023-06-05T01:19:36;99822.13;;;18.69;68.45
78584;BME280;67880;46.082;18.234;2023-06-05T01:20:47;99814.38;;;18.72;67.63
78584;BME280;67880;46.082;18.234;2023-06-05T01:22:00;99816.03;;;18.66;68.09
78584;BME280;67880;46.082;18.234;2023-06-05T01:22:35;99806.44;;;18.71;68.11
78584;BME280;67880;46.082;18.234;2023-06-05T01:23:12;99808.72;;;18.74;68.37
78584;BME280;67880;46.082;18.234;2023-06-05T01:23:44;99806.00;;;18.67;68.34
78584;BME280;67880;46.082;18.234;2023-06-05T01:24:20;99810.19;;;18.70;67.89
78584;BME280;67880;46.082;18.234;2023-06-05T01:24:56;99805.16;;;18.73;67.59
78584;BME280;67880;46.082;18.234;2023-06-05T01:25:31;99805.81;;;18.75;67.98
78584;BME280;67880;46.082;18.234;2023-06-05T01:27:34;99807.69;;;18.75;67.74
78584;BME280;67880;46.082;18.234;2023-06-05T01:28:49;99808.94;;;18.79;68.23
78584;BME280;67880;46.082;18.234;2023-06-05T01:29:39;99805.81;;;18.75;68.02
78584;BME280;67880;46.082;18.234;2023-06-05T01:30:23;99803.94;;;18.76;68.48
78584;BME280;67880;46.082;18.234;2023-06-05T01:31:38;99810.19;;;18.76;67.95
78584;BME280;67880;46.082;18.234;2023-06-05T01:33:32;99804.97;;;18.75;67.81
78584;BME280;67880;46.082;18.234;2023-06-05T01:34:18;99815.03;;;18.81;68.07
78584;BME280;67880;46.082;18.234;2023-06-05T01:34:55;99806.84;;;18.81;67.82
78584;BME280;67880;46.082;18.234;2023-06-05T01:35:34;99811.03;;;18.83;67.89
78584;BME280;67880;46.082;18.234;2023-06-05T01:36:10;99803.94;;;18.82;68.25
78584;BME280;67880;46.082;18.234;2023-06-05T01:37:20;99805.81;;;18.75;68.09
78584;BME280;67880;46.082;18.234;2023-06-05T01:38:34;99809.16;;;18.77;67.95
78584;BME280;67880;46.082;18.234;2023-06-05T01:39:57;99807.69;;;18.75;68.23
78584;BME280;67880;46.082;18.234;2023-06-05T01:41:07;99812.44;;;18.66;68.20
78584;BME280;67880;46.082;18.234;2023-06-05T01:41:43;99810.78;;;18.58;69.08
78584;BME280;67880;46.082;18.234;2023-06-05T01:42:20;99806.00;;;18.67;68.69
78584;BME280;67880;46.082;18.234;2023-06-05T01:42:54;99812.88;;;18.63;68.77
78584;BME280;67880;46.082;18.234;2023-06-05T01:43:31;99813.97;;;18.69;68.40
78584;BME280;67880;46.082;18.234;2023-06-05T01:44:06;99808.09;;;18.72;68.18
78584;BME280;67880;46.082;18.234;2023-06-05T01:44:41;99812.47;;;18.73;68.01
78584;BME280;67880;46.082;18.234;2023-06-05T01:45:15;99815.19;;;18.73;68.58
78584;BME280;67880;46.082;18.234;2023-06-05T01:46:23;99815.41;;;18.78;67.99
78584;BME280;67880;46.082;18.234;2023-06-05T01:46:57;99813.31;;;18.73;68.23
78584;BME280;67880;46.082;18.234;2023-06-05T01:47:31;99814.38;;;18.72;68.36
78584;BME280;67880;46.082;18.234;2023-06-05T01:49:14;99813.13;;;18.75;68.14
78584;BME280;67880;46.082;18.234;2023-06-05T01:49:47;99807.47;;;18.76;68.29
78584;BME280;67880;46.082;18.234;2023-06-05T01:50:19;99810.19;;;18.76;67.83
78584;BME280;67880;46.082;18.234;2023-06-05T01:50:55;99819.19;;;18.77;68.32
78584;BME280;67880;46.082;18.234;2023-06-05T01:52:04;99816.03;;;18.73;68.23
78584;BME280;67880;46.082;18.234;2023-06-05T01:52:39;99813.97;;;18.75;68.60
78584;BME280;67880;46.082;18.234;2023-06-05T01:53:13;99815.03;;;18.74;68.24
78584;BME280;67880;46.082;18.234;2023-06-05T01:53:47;99817.53;;;18.76;68.29
78584;BME280;67880;46.082;18.234;2023-06-05T01:54:22;99812.69;;;18.78;68.02
78584;BME280;67880;46.082;18.234;2023-06-05T01:56:04;99819.59;;;18.80;67.93
78584;BME280;67880;46.082;18.234;2023-06-05T01:56:38;99809.38;;;18.82;67.95
78584;BME280;67880;46.082;18.234;2023-06-05T01:57:13;99812.31;;;18.81;67.69
78584;BME280;67880;46.082;18.234;2023-06-05T01:57:48;99820.25;;;18.82;67.94
78584;BME280;67880;46.082;18.234;2023-06-05T01:58:26;99812.91;;;18.83;68.11
78584;BME280;67880;46.082;18.234;2023-06-05T01:59:01;99816.25;;;18.78;67.93
78584;BME280;67880;46.082;18.234;2023-06-05T01:59:39;99810.59;;;18.80;68.35
78584;BME280;67880;46.082;18.234;2023-06-05T02:00:11;99814.81;;;18.82;68.47
78584;BME280;67880;46.082;18.234;2023-06-05T02:01:24;99819.81;;;18.79;68.74
78584;BME280;67880;46.082;18.234;2023-06-05T02:01:57;99815.63;;;18.76;68.34
78584;BME280;67880;46.082;18.234;2023-06-05T02:02:31;99816.69;;;18.82;68.10
78584;BME280;67880;46.082;18.234;2023-06-05T02:03:06;99821.06;;;18.83;68.17
78584;BME280;67880;46.082;18.234;2023-06-05T02:03:42;99810.59;;;18.80;67.82
78584;BME280;67880;46.082;18.234;2023-06-05T02:04:23;99816.88;;;18.80;68.18
78584;BME280;67880;46.082;18.234;2023-06-05T02:04:59;99814.38;;;18.79;68.23
78584;BME280;67880;46.082;18.234;2023-06-05T02:05:31;99816.03;;;18.80;68.41
78584;BME280;67880;46.082;18.234;2023-06-05T02:06:05;99821.06;;;18.76;68.10
78584;BME280;67880;46.082;18.234;2023-06-05T02:06:37;99809.75;;;18.79;68.09
78584;BME280;67880;46.082;18.234;2023-06-05T02:07:16;99816.25;;;18.78;67.82
78584;BME280;67880;46.082;18.234;2023-06-05T02:07:50;99811.88;;;18.77;68.38
78584;BME280;67880;46.082;18.234;2023-06-05T02:08:26;99817.09;;;18.79;68.50
78584;BME280;67880;46.082;18.234;2023-06-05T02:08:59;99813.53;;;18.78;68.03
78584;BME280;67880;46.082;18.234;2023-06-05T02:09:33;99814.59;;;18.77;67.92
78584;BME280;67880;46.082;18.234;2023-06-05T02:10:41;99817.09;;;18.79;68.34
78584;BME280;67880;46.082;18.234;2023-06-05T02:11:16;99817.09;;;18.79;68.37
78584;BME280;67880;46.082;18.234;2023-06-05T02:11:50;99813.75;;;18.83;68.06
78584;BME280;67880;46.082;18.234;2023-06-05T02:12:26;99818.16;;;18.84;68.18
78584;BME280;67880;46.082;18.234;2023-06-05T02:13:02;99809.75;;;18.79;68.43
78584;BME280;67880;46.082;18.234;2023-06-05T02:13:41;99824.03;;;18.81;68.41
78584;BME280;67880;46.082;18.234;2023-06-05T02:14:32;99816.47;;;18.77;68.50
78584;BME280;67880;46.082;18.234;2023-06-05T02:15:40;99822.75;;;18.77;68.42
78584;BME280;67880;46.082;18.234;2023-06-05T02:16:16;99811.88;;;18.77;68.35
78584;BME280;67880;46.082;18.234;2023-06-05T02:16:52;99814.38;;;18.79;68.43
78584;BME280;67880;46.082;18.234;2023-06-05T02:17:29;99813.97;;;18.82;68.48
78584;BME280;67880;46.082;18.234;2023-06-05T02:18:05;99821.69;;;18.85;68.56
78584;BME280;67880;46.082;18.234;2023-06-05T02:18:43;99809.16;;;18.77;68.53
78584;BME280;67880;46.082;18.234;2023-06-05T02:19:21;99818.97;;;18.78;68.65
78584;BME280;67880;46.082;18.234;2023-06-05T02:20:32;99818.34;;;18.76;69.19
78584;BME280;67880;46.082;18.234;2023-06-05T02:21:06;99811.25;;;18.75;68.76
78584;BME280;67880;46.082;18.234;2023-06-05T02:21:40;99815.03;;;18.74;69.01
78584;BME280;67880;46.082;18.234;2023-06-05T02:22:14;99820.25;;;18.69;68.97
78584;BME280;67880;46.082;18.234;2023-06-05T02:22:48;99808.31;;;18.70;69.19
78584;BME280;67880;46.082;18.234;2023-06-05T02:23:27;99818.97;;;18.72;69.14
78584;BME280;67880;46.082;18.234;2023-06-05T02:24:03;99815.41;;;18.71;68.81
78584;BME280;67880;46.082;18.234;2023-06-05T02:24:39;99817.09;;;18.72;68.46
78584;BME280;67880;46.082;18.234;2023-06-05T02:25:13;99816.03;;;18.66;68.71
78584;BME280;67880;46.082;18.234;2023-06-05T02:25:49;99818.56;;;18.68;68.48
78584;BME280;67880;46.082;18.234;2023-06-05T02:26:23;99816.47;;;18.70;69.02
78584;BME280;67880;46.082;18.234;2023-06-05T02:27:02;99812.66;;;18.64;69.20
78584;BME280;67880;46.082;18.234;2023-06-05T02:27:37;99815.16;;;18.66;69.11
78584;BME280;67880;46.082;18.234;2023-06-05T02:28:13;99813.31;;;18.66;68.37
78584;BME280;67880;46.082;18.234;2023-06-05T02:28:52;99813.28;;;18.60;68.45
78584;BME280;67880;46.082;18.234;2023-06-05T02:29:29;99820.81;;;18.64;68.63
78584;BME280;67880;46.082;18.234;2023-06-05T02:30:03;99816.88;;;18.67;69.04
78584;BME280;67880;46.082;18.234;2023-06-05T02:30:36;99817.28;;;18.64;69.23
78584;BME280;67880;46.082;18.234;2023-06-05T02:31:45;99815.81;;;18.61;69.33
78584;BME280;67880;46.082;18.234;2023-06-05T02:32:20;99829.19;;;18.63;69.16
78584;BME280;67880;46.082;18.234;2023-06-05T02:32:54;99816.00;;;18.60;69.09
78584;BME280;67880;46.082;18.234;2023-06-05T02:33:32;99813.72;;;18.63;69.22
78584;BME280;67880;46.082;18.234;2023-06-05T02:34:05;99818.94;;;18.65;68.91
78584;BME280;67880;46.082;18.234;2023-06-05T02:34:37;99827.09;;;18.65;69.39
78584;BME280;67880;46.082;18.234;2023-06-05T02:36:19;99816.84;;;18.60;69.38
78584;BME280;67880;46.082;18.234;2023-06-05T02:36:55;99814.94;;;18.61;68.79
78584;BME280;67880;46.082;18.234;2023-06-05T02:37:29;99824.38;;;18.65;69.62
78584;BME280;67880;46.082;18.234;2023-06-05T02:38:09;99811.22;;;18.62;68.86
78584;BME280;67880;46.082;18.234;2023-06-05T02:39:17;99816.66;;;18.62;68.85
78584;BME280;67880;46.082;18.234;2023-06-05T02:39:50;99817.28;;;18.64;68.72
78584;BME280;67880;46.082;18.234;2023-06-05T02:40:25;99814.34;;;18.65;69.10
78584;BME280;67880;46.082;18.234;2023-06-05T02:41:01;99820.41;;;18.67;68.91
78584;BME280;67880;46.082;18.234;2023-06-05T02:41:36;99817.47;;;18.62;68.99
78584;BME280;67880;46.082;18.234;2023-06-05T02:42:08;99822.09;;;18.62;69.50
78584;BME280;67880;46.082;18.234;2023-06-05T02:43:53;99820.19;;;18.62;68.88
78584;BME280;67880;46.082;18.234;2023-06-05T02:44:28;99810.38;;;18.55;69.13
78584;BME280;67880;46.082;18.234;2023-06-05T02:46:10;99828.97;;;18.64;69.06
78584;BME280;67880;46.082;18.234;2023-06-05T02:46:44;99821.88;;;18.63;69.34
78584;BME280;67880;46.082;18.234;2023-06-05T02:47:18;99818.09;;;18.64;69.30
78584;BME280;67880;46.082;18.234;2023-06-05T02:47:50;99821.03;;;18.63;69.27
78584;BME280;67880;46.082;18.234;2023-06-05T02:48:23;99826.03;;;18.59;69.44
78584;BME280;67880;46.082;18.234;2023-06-05T02:49:28;99818.72;;;18.60;69.23
78584;BME280;67880;46.082;18.234;2023-06-05T02:50:01;99827.72;;;18.60;69.20
78584;BME280;67880;46.082;18.234;2023-06-05T02:51:10;99824.97;;;18.54;69.16
78584;BME280;67880;46.082;18.234;2023-06-05T02:51:45;99827.91;;;18.52;69.11
78584;BME280;67880;46.082;18.234;2023-06-05T02:52:17;99823.75;;;18.50;68.97
78584;BME280;67880;46.082;18.234;2023-06-05T02:53:33;99818.09;;;18.58;69.14
78584;BME280;67880;46.082;18.234;2023-06-05T02:54:05;99826.47;;;18.56;69.24
78584;BME280;67880;46.082;18.234;2023-06-05T02:54:40;99826.03;;;18.59;68.95
78584;BME280;67880;46.082;18.234;2023-06-05T02:55:12;99829.19;;;18.63;69.42
78584;BME280;67880;46.082;18.234;2023-06-05T02:56:20;99822.09;;;18.62;69.48
78584;BME280;67880;46.082;18.234;2023-06-05T02:56:55;99825.66;;;18.62;69.68
78584;BME280;67880;46.082;18.234;2023-06-05T02:57:34;99833.13;;;18.54;69.67
78584;BME280;67880;46.082;18.234;2023-06-05T02:58:15;99832.31;;;18.60;68.87
78584;BME280;67880;46.082;18.234;2023-06-05T02:58:49;99830.25;;;18.62;69.02
78584;BME280;67880;46.082;18.234;2023-06-05T02:59:58;99831.91;;;18.63;69.48
78584;BME280;67880;46.082;18.234;2023-06-05T03:00:33;99832.75;;;18.63;69.16
78584;BME280;67880;46.082;18.234;2023-06-05T03:01:08;99828.34;;;18.56;69.17
78584;BME280;67880;46.082;18.234;2023-06-05T03:01:44;99833.97;;;18.54;69.00
78584;BME280;67880;46.082;18.234;2023-06-05T03:02:22;99837.34;;;18.56;69.46
78584;BME280;67880;46.082;18.234;2023-06-05T03:02:58;99831.06;;;18.49;69.46
78584;BME280;67880;46.082;18.234;2023-06-05T03:03:34;99831.47;;;18.53;69.60
78584;BME280;67880;46.082;18.234;2023-06-05T03:04:10;99832.31;;;18.53;69.14
78584;BME280;67880;46.082;18.234;2023-06-05T03:04:46;99838.19;;;18.57;69.14
78584;BME280;67880;46.082;18.234;2023-06-05T03:05:31;99843.41;;;18.58;69.79
78584;BME280;67880;46.082;18.234;2023-06-05T03:06:06;99835.69;;;18.55;69.40
78584;BME280;67880;46.082;18.234;2023-06-05T03:06:42;99835.69;;;18.55;69.79
78584;BME280;67880;46.082;18.234;2023-06-05T03:07:15;99832.50;;;18.52;69.40
78584;BME280;67880;46.082;18.234;2023-06-05T03:07:48;99837.75;;;18.53;69.58
78584;BME280;67880;46.082;18.234;2023-06-05T03:09:00;99840.69;;;18.58;68.88
78584;BME280;67880;46.082;18.234;2023-06-05T03:10:09;99832.31;;;18.60;69.61
78584;BME280;67880;46.082;18.234;2023-06-05T03:10:43;99836.09;;;18.59;69.35
78584;BME280;67880;46.082;18.234;2023-06-05T03:14:00;99837.75;;;18.60;69.62
78584;BME280;67880;46.082;18.234;2023-06-05T03:15:09;99833.56;;;18.57;69.51
78584;BME280;67880;46.082;18.234;2023-06-05T03:15:43;99827.09;;;18.58;69.47
78584;BME280;67880;46.082;18.234;2023-06-05T03:16:30;99833.56;;;18.57;68.77
78584;BME280;67880;46.082;18.234;2023-06-05T03:17:06;99831.25;;;18.61;69.84
78584;BME280;67880;46.082;18.234;2023-06-05T03:17:41;99835.47;;;18.63;69.80
78584;BME280;67880;46.082;18.234;2023-06-05T03:18:17;99827.31;;;18.57;69.91
78584;BME280;67880;46.082;18.234;2023-06-05T03:19:28;99833.16;;;18.60;70.27
78584;BME280;67880;46.082;18.234;2023-06-05T03:20:00;99832.31;;;18.60;69.93
78584;BME280;67880;46.082;18.234;2023-06-05T03:21:08;99837.97;;;18.58;69.90
78584;BME280;67880;46.082;18.234;2023-06-05T03:21:45;99833.56;;;18.57;69.36
78584;BME280;67880;46.082;18.234;2023-06-05T03:22:21;99836.28;;;18.57;70.11
78584;BME280;67880;46.082;18.234;2023-06-05T03:22:57;99839.41;;;18.54;70.12
78584;BME280;67880;46.082;18.234;2023-06-05T03:23:29;99833.13;;;18.54;69.36
78584;BME280;67880;46.082;18.234;2023-06-05T03:24:08;99836.28;;;18.57;69.80
78584;BME280;67880;46.082;18.234;2023-06-05T03:25:15;99831.69;;;18.51;69.96
78584;BME280;67880;46.082;18.234;2023-06-05T03:25:51;99832.31;;;18.53;69.67
78584;BME280;67880;46.082;18.234;2023-06-05T03:26:25;99823.97;;;18.55;69.39
78584;BME280;67880;46.082;18.234;2023-06-05T03:26:57;99828.97;;;18.51;69.72
78584;BME280;67880;46.082;18.234;2023-06-05T03:27:31;99834.84;;;18.55;69.87
78584;BME280;67880;46.082;18.234;2023-06-05T03:28:05;99829.19;;;18.56;68.82
78584;BME280;67880;46.082;18.234;2023-06-05T03:28:37;99824.81;;;18.55;69.50
78584;BME280;67880;46.082;18.234;2023-06-05T03:30:15;99830.84;;;18.57;69.15
78584;BME280;67880;46.082;18.234;2023-06-05T03:31:24;99826.47;;;18.56;68.93
78584;BME280;67880;46.082;18.234;2023-06-05T03:32:30;99823.75;;;18.56;68.97
78584;BME280;67880;46.082;18.234;2023-06-05T03:33:36;99831.13;;;18.69;68.48
78584;BME280;67880;46.082;18.234;2023-06-05T03:34:08;99831.53;;;18.73;68.72
78584;BME280;67880;46.082;18.234;2023-06-05T03:35:18;99831.53;;;18.73;68.76
78584;BME280;67880;46.082;18.234;2023-06-05T03:35:50;99821.91;;;18.77;68.10
78584;BME280;67880;46.082;18.234;2023-06-05T03:36:25;99833.19;;;18.74;68.15
78584;BME280;67880;46.082;18.234;2023-06-05T03:37:32;99821.28;;;18.81;68.24
78584;BME280;67880;46.082;18.234;2023-06-05T03:38:04;99827.97;;;18.85;67.65
78584;BME280;67880;46.082;18.234;2023-06-05T03:39:24;99827.56;;;18.88;68.16
78584;BME280;67880;46.082;18.234;2023-06-05T03:40:01;99829.84;;;18.85;67.81
78584;BME280;67880;46.082;18.234;2023-06-05T03:40:37;99827.56;;;18.82;68.21
78584;BME280;67880;46.082;18.234;2023-06-05T03:41:13;99827.34;;;18.83;68.63
78584;BME280;67880;46.082;18.234;2023-06-05T03:41:48;99825.69;;;18.82;67.91
78584;BME280;67880;46.082;18.234;2023-06-05T03:42:20;99823.59;;;18.78;68.66
78584;BME280;67880;46.082;18.234;2023-06-05T03:42:52;99816.88;;;18.74;68.00
78584;BME280;67880;46.082;18.234;2023-06-05T03:43:24;99821.06;;;18.76;68.43
78584;BME280;67880;46.082;18.234;2023-06-05T03:43:56;99819.19;;;18.77;68.27
78584;BME280;67880;46.082;18.234;2023-06-05T03:44:35;99813.13;;;18.81;67.76
78584;BME280;67880;46.082;18.234;2023-06-05T03:45:43;99826.53;;;18.89;68.25
78584;BME280;67880;46.082;18.234;2023-06-05T03:46:19;99807.25;;;18.84;68.63
78584;BME280;67880;46.082;18.234;2023-06-05T03:46:55;99819.81;;;18.85;67.62
78584;BME280;67880;46.082;18.234;2023-06-05T03:47:29;99823.78;;;18.76;68.29
78584;BME280;67880;46.082;18.234;2023-06-05T03:48:01;99820.66;;;18.79;68.29
78584;BME280;67880;46.082;18.234;2023-06-05T03:48:36;99822.53;;;18.85;68.04
78584;BME280;67880;46.082;18.234;2023-06-05T03:49:12;99813.13;;;18.88;67.74
78584;BME280;67880;46.082;18.234;2023-06-05T03:49:44;99811.66;;;18.85;68.32
78584;BME280;67880;46.082;18.234;2023-06-05T03:50:52;99817.09;;;18.92;66.96
78584;BME280;67880;46.082;18.234;2023-06-05T03:52:03;99825.25;;;18.99;67.86
78584;BME280;67880;46.082;18.234;2023-06-05T03:52:35;99820.25;;;18.96;67.33
78584;BME280;67880;46.082;18.234;2023-06-05T03:53:10;99821.06;;;18.96;67.10
78584;BME280;67880;46.082;18.234;2023-06-05T03:54:30;99820.03;;;18.90;67.87
78584;BME280;67880;46.082;18.234;2023-06-05T03:55:42;99820.25;;;18.89;67.66
78584;BME280;67880;46.082;18.234;2023-06-05T03:56:20;99819.41;;;18.88;67.98
78584;BME280;67880;46.082;18.234;2023-06-05T03:56:55;99823.81;;;18.89;68.35
78584;BME280;67880;46.082;18.234;2023-06-05T03:57:29;99817.31;;;18.90;67.57
78584;BME280;67880;46.082;18.234;2023-06-05T03:58:05;99822.97;;;18.96;68.23
78584;BME280;67880;46.082;18.234;2023-06-05T03:58:39;99813.53;;;18.98;67.49
78584;BME280;67880;46.082;18.234;2023-06-05T03:59:13;99816.03;;;19.00;67.76
78584;BME280;67880;46.082;18.234;2023-06-05T03:59:51;99815.63;;;19.03;68.07
78584;BME280;67880;46.082;18.234;2023-06-05T04:00:23;99813.13;;;19.01;67.47
78584;BME280;67880;46.082;18.234;2023-06-05T04:00:56;99811.47;;;19.00;67.87
78584;BME280;67880;46.082;18.234;2023-06-05T04:01:28;99807.69;;;19.01;67.43